Owatonna, MN

12:13 PM CDT on May 21, 2018 (GMT -0500)
Owatonna Degner Regional

Weather History for KOWA - October, 2011

Change the Weather History Date:

Wednesday, October 19, 2011

  Actual Average Record
Temperature  
Mean Temperature 42 °F -  
Max Temperature 46 °F 57 °F 84 °F (2000)
Min Temperature 39 °F 33 °F 13 °F (1972)
Degree Days  
Heating Degree Days 22    
Moisture  
Dew Point 34 °F    
Average Humidity 73    
Maximum Humidity 87    
Minimum Humidity 61    
Precipitation  
Precipitation 0.00 in - - ()
Sea Level Pressure  
Sea Level Pressure 30.03 in    
Wind  
Wind Speed 11 mph (North)    
Max Wind Speed 17 mph    
Max Gust Speed 21 mph    
Visibility 10 miles    
Events      
Averages and records for this station are not official NWS values.
T = Trace of Precipitation, MM = Missing Value Source: NWS Daily Summary

Daily Weather History Graph

Daily Weather History Graph

Search for Another Location

Airport or City:

Astronomy

Oct. 19, 2011 Rise Set
Actual Time 7:32 AM CDT 6:22 PM CDT
Civil Twilight 7:03 AM CDT 6:52 PM CDT
Nautical Twilight 6:29 AM CDT 7:25 PM CDT
Astronomical Twilight 5:56 AM CDT 7:59 PM CDT
Moon No Moon Rise 2:09 PM CDT (10/19)
Length of Visible Light 11h 48m
Length of Day
10h 50m
Waning Gibbous, 54% of the Moon is Illuminated
Oct 19
Waning Gibbous
Oct 19
Last Quarter
Oct 26
New
Nov 2
First Quarter
Nov 10
Full

Hourly Weather History & Observations

Time (CDT) Temp. Windchill Dew Point Humidity Pressure Visibility Wind Dir Wind Speed Gust Speed Precip Events Conditions
12:15 AM 42.8 °F 36.6 °F 32.0 °F 66% 30.01 in 10.0 mi North 11.5 mph - N/A   Overcast
12:35 AM 42.8 °F 37.0 °F 32.0 °F 66% 30.01 in 10.0 mi North 10.4 mph - N/A   Overcast
1:15 AM 42.8 °F 37.5 °F 32.0 °F 66% 30.01 in 10.0 mi North 9.2 mph - N/A   Overcast
2:15 AM 41.0 °F 36.4 °F 33.8 °F 76% 30.01 in 10.0 mi North 6.9 mph - N/A   Overcast
2:35 AM 41.0 °F 36.4 °F 33.8 °F 76% 30.01 in 10.0 mi North 6.9 mph - N/A   Overcast
3:15 AM 41.0 °F 35.8 °F 35.6 °F 81% 30.01 in 10.0 mi North 8.1 mph - N/A   Overcast
3:35 AM 41.0 °F 33.9 °F 35.6 °F 81% 30.00 in 10.0 mi North 12.7 mph 16.1 mph N/A   Overcast
3:55 AM 39.2 °F 32.0 °F 35.6 °F 87% 30.01 in 10.0 mi North 11.5 mph - N/A   Light Drizzle
4:15 AM 39.2 °F 32.0 °F 33.8 °F 81% 30.01 in 10.0 mi North 11.5 mph - N/A   Overcast
4:35 AM 39.2 °F 33.6 °F 33.8 °F 81% 30.01 in 10.0 mi North 8.1 mph - N/A   Overcast
4:55 AM 39.2 °F 33.6 °F 33.8 °F 81% 30.01 in 10.0 mi North 8.1 mph - N/A   Overcast
5:15 AM 39.2 °F 33.0 °F 33.8 °F 81% 30.02 in 10.0 mi North 9.2 mph - N/A   Overcast
5:35 AM 39.2 °F 32.5 °F 33.8 °F 81% 30.02 in 10.0 mi North 10.4 mph - N/A   Overcast
5:55 AM 39.2 °F 31.6 °F 33.8 °F 81% 30.03 in 10.0 mi North 12.7 mph 16.1 mph N/A   Overcast
6:15 AM 39.2 °F 31.6 °F 33.8 °F 81% 30.03 in 10.0 mi North 12.7 mph - N/A   Overcast
6:35 AM 39.2 °F 33.6 °F 33.8 °F 81% 30.03 in 10.0 mi North 8.1 mph 16.1 mph N/A   Overcast
6:55 AM 39.2 °F 33.6 °F 33.8 °F 81% 30.04 in 10.0 mi North 8.1 mph - N/A   Overcast
7:15 AM 39.2 °F 32.5 °F 33.8 °F 81% 30.04 in 10.0 mi North 10.4 mph - N/A   Overcast
7:35 AM 39.2 °F 33.0 °F 33.8 °F 81% 30.04 in 10.0 mi North 9.2 mph - N/A   Overcast
7:55 AM 39.2 °F 32.5 °F 33.8 °F 81% 30.05 in 10.0 mi North 10.4 mph - N/A   Overcast
8:15 AM 39.2 °F 33.0 °F 33.8 °F 81% 30.05 in 10.0 mi North 9.2 mph - N/A   Overcast
8:35 AM 39.2 °F 32.5 °F 33.8 °F 81% 30.05 in 10.0 mi North 10.4 mph - N/A   Overcast
8:55 AM 39.2 °F 33.0 °F 33.8 °F 81% 30.06 in 10.0 mi North 9.2 mph - N/A   Overcast
9:15 AM 41.0 °F 34.3 °F 33.8 °F 76% 30.06 in 10.0 mi North 11.5 mph - N/A   Overcast
9:35 AM 41.0 °F 33.9 °F 33.8 °F 76% 30.06 in 10.0 mi North 12.7 mph - N/A   Overcast
9:55 AM 41.0 °F 34.3 °F 33.8 °F 76% 30.06 in 10.0 mi North 11.5 mph 17.3 mph N/A   Overcast
10:15 AM 42.8 °F 35.1 °F 35.6 °F 76% 30.07 in 10.0 mi North 16.1 mph - N/A   Overcast
10:35 AM 42.8 °F 35.4 °F 35.6 °F 76% 30.07 in 10.0 mi North 15.0 mph - N/A   Overcast
11:15 AM 42.8 °F 36.6 °F 35.6 °F 76% 30.07 in 10.0 mi NNE 11.5 mph - N/A   Overcast
11:35 AM 42.8 °F 36.2 °F 35.6 °F 76% 30.07 in 10.0 mi NNE 12.7 mph 16.1 mph N/A   Overcast
12:35 PM 44.6 °F 38.4 °F 35.6 °F 71% 30.06 in 10.0 mi North 12.7 mph 18.4 mph N/A   Overcast
12:55 PM 44.6 °F 38.4 °F 35.6 °F 71% 30.06 in 10.0 mi North 12.7 mph 19.6 mph N/A   Overcast
1:15 PM 44.6 °F 38.1 °F 35.6 °F 71% 30.05 in 10.0 mi North 13.8 mph 19.6 mph N/A   Overcast
1:35 PM 44.6 °F 38.4 °F 35.6 °F 71% 30.05 in 10.0 mi North 12.7 mph 17.3 mph N/A   Overcast
1:55 PM 44.6 °F 38.1 °F 35.6 °F 71% 30.05 in 10.0 mi North 13.8 mph - N/A   Overcast
2:15 PM 44.6 °F 37.8 °F 33.8 °F 66% 30.05 in 10.0 mi North 15.0 mph - N/A   Overcast
2:35 PM 44.6 °F 37.8 °F 33.8 °F 66% 30.04 in 10.0 mi North 15.0 mph 20.7 mph N/A   Overcast
2:55 PM 44.6 °F 38.1 °F 33.8 °F 66% 30.03 in 10.0 mi North 13.8 mph 20.7 mph N/A   Overcast
3:15 PM 44.6 °F 37.2 °F 33.8 °F 66% 30.03 in 10.0 mi North 17.3 mph - N/A   Overcast
3:35 PM 44.6 °F 37.8 °F 33.8 °F 66% 30.02 in 10.0 mi North 15.0 mph - N/A   Overcast
3:55 PM 44.6 °F 38.8 °F 33.8 °F 66% 30.02 in 10.0 mi North 11.5 mph - N/A   Overcast
4:15 PM 44.6 °F 37.8 °F 33.8 °F 66% 30.02 in 10.0 mi NNW 15.0 mph 18.4 mph N/A   Overcast
4:35 PM 46.4 °F 40.4 °F 33.8 °F 62% 30.02 in 10.0 mi NNW 13.8 mph 18.4 mph N/A   Overcast
4:55 PM 46.4 °F 40.4 °F 33.8 °F 62% 30.02 in 10.0 mi NNW 13.8 mph - N/A   Overcast
5:15 PM 46.4 °F 40.4 °F 33.8 °F 62% 30.02 in 10.0 mi NNW 13.8 mph - N/A   Overcast
5:35 PM 44.6 °F 39.2 °F 33.8 °F 66% 30.02 in 10.0 mi NNW 10.4 mph - N/A   Overcast
5:55 PM 44.6 °F 38.8 °F 33.8 °F 66% 30.02 in 10.0 mi NNW 11.5 mph - N/A   Overcast
6:15 PM 44.6 °F 38.8 °F 33.8 °F 66% 30.02 in 10.0 mi NNW 11.5 mph - N/A   Overcast
6:35 PM 44.6 °F 39.2 °F 33.8 °F 66% 30.03 in 10.0 mi NW 10.4 mph - N/A   Overcast
6:55 PM 44.6 °F 38.8 °F 33.8 °F 66% 30.03 in 10.0 mi NNW 11.5 mph - N/A   Overcast
7:15 PM 44.6 °F 38.8 °F 33.8 °F 66% 30.02 in 10.0 mi NNW 11.5 mph - N/A   Overcast
7:35 PM 44.6 °F 38.8 °F 32.0 °F 61% 30.02 in 10.0 mi NNW 11.5 mph - N/A   Overcast
7:55 PM 44.6 °F 39.2 °F 32.0 °F 61% 30.03 in 10.0 mi NNW 10.4 mph - N/A   Overcast
8:01 PM 44.6 °F 39.7 °F 33.8 °F 66% 30.03 in 10.0 mi NNW 9.2 mph - N/A   Overcast
8:35 PM 42.8 °F 38.0 °F 33.8 °F 70% 30.02 in 10.0 mi NNW 8.1 mph - N/A   Overcast
9:15 PM 42.8 °F 38.6 °F 32.0 °F 66% 30.02 in 10.0 mi North 6.9 mph 10.4 mph N/A   Overcast
9:35 PM 39.2 °F 35.0 °F 30.2 °F 70% 30.01 in 10.0 mi NNW 5.8 mph - N/A   Scattered Clouds
9:55 PM 37.4 °F 31.4 °F 30.2 °F 75% 30.02 in 10.0 mi North 8.1 mph - N/A   Clear
10:01 PM 37.4 °F 31.4 °F 30.2 °F 75% 30.02 in 10.0 mi NNW 8.1 mph - N/A   Clear
10:55 PM 35.6 °F 29.2 °F 30.2 °F 81% 30.01 in 10.0 mi North 8.1 mph - N/A   Clear
11:15 PM 37.4 °F 32.1 °F 30.2 °F 75% 30.00 in 10.0 mi NNW 6.9 mph - N/A   Clear
11:35 PM 35.6 °F 29.2 °F 30.2 °F 81% 29.99 in 10.0 mi NNW 8.1 mph - N/A   Clear
11:55 PM 33.8 °F 27.7 °F 28.4 °F 81% 29.99 in 10.0 mi NNW 6.9 mph - N/A   Clear